createdAt,value
2022-11-15T00:01:28.608Z,58.47
2022-11-15T00:04:13.923Z,64.13
2022-11-15T00:06:59.201Z,54.88
2022-11-15T00:09:46.135Z,59.13
2022-11-15T00:12:31.610Z,51.25
2022-11-15T00:15:17.129Z,51.00
2022-11-15T00:18:04.675Z,47.15
2022-11-15T00:20:49.666Z,49.58
2022-11-15T00:23:35.017Z,63.55
2022-11-15T00:26:20.408Z,54.00
2022-11-15T00:29:05.545Z,61.97
2022-11-15T00:31:50.858Z,62.40
2022-11-15T00:34:36.025Z,61.38
2022-11-15T00:37:21.373Z,58.75
2022-11-15T00:40:07.227Z,55.92
2022-11-15T00:42:53.426Z,67.25
2022-11-15T00:45:39.482Z,60.83
2022-11-15T00:48:24.918Z,58.33
2022-11-15T00:51:09.892Z,50.53
2022-11-15T00:53:55.389Z,60.42
2022-11-15T00:56:40.564Z,60.65
2022-11-15T00:59:25.721Z,57.85
2022-11-15T01:02:10.904Z,54.30
2022-11-15T01:04:56.272Z,44.05
2022-11-15T01:07:41.598Z,72.10
2022-11-15T01:10:27.028Z,46.33
2022-11-15T01:13:12.362Z,50.00
2022-11-15T01:15:57.563Z,57.72
2022-11-15T01:18:44.418Z,49.65
2022-11-15T01:21:29.748Z,46.03
2022-11-15T01:24:18.068Z,44.40
2022-11-15T01:27:02.957Z,54.42
2022-11-15T01:29:48.727Z,43.67
2022-11-15T01:32:34.104Z,55.03
2022-11-15T01:35:19.582Z,54.75
2022-11-15T01:38:04.742Z,69.43
2022-11-15T01:40:50.439Z,61.13
2022-11-15T01:43:37.784Z,45.85
2022-11-15T01:46:25.198Z,65.78
2022-11-15T01:49:17.946Z,49.30
2022-11-15T01:52:08.167Z,52.45
2022-11-15T01:55:03.431Z,57.17
2022-11-15T01:57:52.043Z,38.95
2022-11-15T02:00:37.489Z,78.78
2022-11-15T02:03:27.558Z,66.18
2022-11-15T02:06:12.822Z,55.55
2022-11-15T02:08:58.454Z,51.35
2022-11-15T02:11:46.389Z,48.72
2022-11-15T02:14:33.150Z,49.13
2022-11-15T02:17:34.196Z,62.25
2022-11-15T02:20:37.319Z,63.17
2022-11-15T02:23:22.420Z,45.85
2022-11-15T02:26:19.455Z,48.75
2022-11-15T02:29:42.018Z,48.80
2022-11-15T02:32:45.951Z,47.03
2022-11-15T02:36:16.656Z,52.80
2022-11-15T02:39:16.155Z,49.38
2022-11-15T02:42:28.564Z,51.80
2022-11-15T02:45:20.231Z,40.17
2022-11-15T02:48:07.671Z,42.50
2022-11-15T02:50:53.274Z,52.72
2022-11-15T02:53:38.416Z,49.92
2022-11-15T02:56:23.690Z,40.50
2022-11-15T02:59:30.835Z,51.45
2022-11-15T03:02:54.785Z,45.45
2022-11-15T03:05:59.078Z,45.65
2022-11-15T03:08:53.055Z,61.55
2022-11-15T03:11:49.650Z,76.38
2022-11-15T03:14:42.402Z,45.42
2022-11-15T03:20:31.661Z,103.80
2022-11-15T03:23:18.438Z,54.15
2022-11-15T03:26:07.873Z,42.75
2022-11-15T03:29:04.335Z,40.33
2022-11-15T03:31:54.772Z,64.25
2022-11-15T03:34:49.970Z,65.10
2022-11-15T03:37:40.032Z,40.15
2022-11-15T03:40:49.091Z,34.28
2022-11-15T03:44:00.867Z,47.83
2022-11-15T03:46:55.879Z,48.60
2022-11-15T03:49:46.764Z,45.22
2022-11-15T03:52:34.624Z,50.30
2022-11-15T03:55:21.795Z,62.22
2022-11-15T03:58:07.296Z,49.25
2022-11-15T04:00:52.566Z,41.65
2022-11-15T04:03:37.606Z,40.08
2022-11-15T04:06:23.799Z,40.97
2022-11-15T04:09:08.761Z,52.03
2022-11-15T04:11:54.032Z,44.47
2022-11-15T04:14:59.296Z,31.67
2022-11-15T04:17:45.645Z,52.03
2022-11-15T04:20:50.719Z,30.58
2022-11-15T04:24:08.192Z,32.33
2022-11-15T04:26:53.238Z,61.95
2022-11-15T04:29:38.323Z,55.08
2022-11-15T04:32:23.718Z,42.95
2022-11-15T04:35:09.086Z,65.13
2022-11-15T04:37:54.784Z,52.90
2022-11-15T04:40:39.846Z,39.10
2022-11-15T04:43:25.216Z,52.17
2022-11-15T04:46:10.566Z,53.97
2022-11-15T04:48:59.045Z,56.65
2022-11-15T04:51:45.317Z,58.90
2022-11-15T04:54:30.823Z,69.32
2022-11-15T04:57:16.426Z,44.55
2022-11-15T05:00:03.683Z,46.60
2022-11-15T05:03:07.572Z,53.38
2022-11-15T05:05:52.723Z,41.55
2022-11-15T05:10:57.674Z,62.95
2022-11-15T05:13:42.637Z,47.22
2022-11-15T05:16:27.908Z,40.17
2022-11-15T05:19:13.363Z,33.63
2022-11-15T05:21:58.928Z,36.67
2022-11-15T05:24:44.161Z,37.88
2022-11-15T05:27:29.786Z,35.28
2022-11-15T05:30:15.818Z,57.72
2022-11-15T05:33:01.771Z,45.08
2022-11-15T05:35:55.471Z,39.10
2022-11-15T05:38:40.805Z,41.35
2022-11-15T05:41:47.973Z,35.83
2022-11-15T05:44:34.099Z,40.72
2022-11-15T05:47:25.820Z,41.53
2022-11-15T05:50:15.426Z,48.53
2022-11-15T05:53:05.344Z,47.47
2022-11-15T05:55:50.932Z,41.22
2022-11-15T05:58:37.974Z,49.17
2022-11-15T06:01:23.458Z,44.63
2022-11-15T06:04:08.659Z,67.55
2022-11-15T06:06:53.763Z,82.88
2022-11-15T06:09:39.185Z,41.33
2022-11-15T06:12:24.415Z,55.15
2022-11-15T06:15:09.804Z,60.33
2022-11-15T06:17:58.416Z,54.63
2022-11-15T06:20:43.629Z,41.65
2022-11-15T06:23:32.306Z,36.13
2022-11-15T06:26:17.897Z,74.45
2022-11-15T06:29:06.398Z,60.40
2022-11-15T06:31:51.915Z,95.50
2022-11-15T06:34:37.092Z,39.75
2022-11-15T06:37:22.183Z,62.17
2022-11-15T06:40:09.758Z,39.55
2022-11-15T06:43:00.203Z,85.40
2022-11-15T06:45:45.286Z,40.53
2022-11-15T06:48:31.631Z,47.65
2022-11-15T06:51:16.910Z,44.13
2022-11-15T06:54:02.896Z,77.18
2022-11-15T06:56:48.234Z,60.92
2022-11-15T06:59:36.384Z,48.05
2022-11-15T07:02:25.976Z,49.28
2022-11-15T07:05:11.573Z,54.47
2022-11-15T07:07:58.207Z,58.05
2022-11-15T07:10:43.162Z,44.63
2022-11-15T07:13:30.996Z,45.00
2022-11-15T07:16:16.348Z,211.07
2022-11-15T07:19:01.323Z,73.35
2022-11-15T07:21:46.572Z,61.90
2022-11-15T07:24:31.695Z,72.55
2022-11-15T07:27:16.969Z,56.30
2022-11-15T07:30:02.893Z,61.58
2022-11-15T07:32:48.192Z,55.33
2022-11-15T07:35:33.497Z,87.43
2022-11-15T07:38:21.624Z,91.20
2022-11-15T07:41:07.980Z,61.25
2022-11-15T07:43:53.584Z,59.90
2022-11-15T07:46:38.723Z,53.92
2022-11-15T07:49:24.133Z,72.35
2022-11-15T07:52:09.170Z,44.90
2022-11-15T07:54:54.487Z,41.92
2022-11-15T07:57:39.866Z,46.38
2022-11-15T08:00:25.027Z,51.38
2022-11-15T08:03:12.852Z,52.40
2022-11-15T08:05:57.727Z,52.80
2022-11-15T08:08:43.031Z,47.33
2022-11-15T08:11:28.703Z,42.35
2022-11-15T08:14:13.808Z,54.47
2022-11-15T08:16:59.223Z,45.33
2022-11-15T08:19:44.449Z,38.20
2022-11-15T08:22:29.706Z,64.47
2022-11-15T08:25:15.086Z,44.88
2022-11-15T08:28:03.154Z,47.47
2022-11-15T08:30:48.279Z,99.82
2022-11-15T08:33:36.582Z,91.45
2022-11-15T08:36:21.613Z,68.55
2022-11-15T08:39:07.004Z,77.75
2022-11-15T08:41:53.335Z,47.90
2022-11-15T08:44:38.619Z,49.53
2022-11-15T08:47:24.459Z,46.00
2022-11-15T08:50:09.832Z,53.40
2022-11-15T08:52:55.113Z,51.10
2022-11-15T08:55:41.659Z,55.05
2022-11-15T08:58:26.669Z,52.58
2022-11-15T09:01:20.593Z,59.17
2022-11-15T09:04:06.127Z,54.05
2022-11-15T09:06:51.558Z,63.63
2022-11-15T09:09:36.905Z,49.55
2022-11-15T09:12:22.459Z,51.85
2022-11-15T09:15:08.399Z,53.22
2022-11-15T09:17:53.692Z,67.80
2022-11-15T09:20:39.008Z,67.13
2022-11-15T09:23:25.504Z,66.18
2022-11-15T09:26:11.019Z,57.80
2022-11-15T09:28:56.240Z,63.50
2022-11-15T09:31:41.489Z,77.78
2022-11-15T09:34:27.069Z,70.03
2022-11-15T09:37:13.232Z,64.25
2022-11-15T09:39:58.607Z,55.30
2022-11-15T09:42:55.833Z,55.03
2022-11-15T09:46:20.059Z,56.65
2022-11-15T09:49:05.691Z,59.38
2022-11-15T09:51:36.959Z,55.58
2022-11-15T09:54:45.456Z,48.80
2022-11-15T09:57:03.294Z,57.20
2022-11-15T09:59:51.660Z,57.25
2022-11-15T10:02:33.531Z,55.25
2022-11-15T10:05:01.798Z,55.97
2022-11-15T10:07:40.502Z,48.97
2022-11-15T10:10:46.988Z,51.42
2022-11-15T10:13:45.557Z,52.45
2022-11-15T10:16:29.795Z,51.90
2022-11-15T10:19:18.294Z,51.67
2022-11-15T10:22:03.431Z,50.35
2022-11-15T10:24:38.295Z,49.83
2022-11-15T10:27:14.825Z,57.10
2022-11-15T10:29:47.544Z,63.60
2022-11-15T10:32:16.904Z,47.60
2022-11-15T10:34:44.592Z,46.28
2022-11-15T10:37:11.610Z,47.33
2022-11-15T10:39:38.337Z,51.75
2022-11-15T10:42:37.546Z,46.33
2022-11-15T10:45:24.484Z,46.13
2022-11-15T10:47:51.078Z,45.55
2022-11-15T10:50:30.900Z,44.83
2022-11-15T10:52:58.318Z,44.97
2022-11-15T10:55:32.287Z,45.97
2022-11-15T10:58:23.681Z,43.83
2022-11-15T11:00:53.412Z,43.88
2022-11-15T11:03:35.307Z,43.22
2022-11-15T11:06:17.329Z,42.65
2022-11-15T11:08:55.888Z,38.72
2022-11-15T11:11:22.987Z,39.13
2022-11-15T11:13:49.960Z,37.78
2022-11-15T11:16:41.579Z,39.50
2022-11-15T11:19:35.755Z,36.57
2022-11-15T11:22:21.803Z,37.42
2022-11-15T11:25:29.919Z,38.45
2022-11-15T11:28:18.407Z,40.00
2022-11-15T11:30:53.965Z,39.75
2022-11-15T11:33:32.681Z,40.50
2022-11-15T11:36:20.951Z,39.15
2022-11-15T11:38:56.582Z,40.90
2022-11-15T11:41:44.454Z,40.90
2022-11-15T11:44:22.913Z,42.63
2022-11-15T11:46:52.170Z,41.92
2022-11-15T11:49:25.239Z,41.53
2022-11-15T11:51:59.603Z,46.13
2022-11-15T11:54:32.384Z,41.15
2022-11-15T11:57:00.994Z,44.38
2022-11-15T12:00:03.165Z,40.40
2022-11-15T12:03:11.347Z,38.70
2022-11-15T12:05:40.931Z,41.67
2022-11-15T12:08:39.715Z,43.25
2022-11-15T12:11:30.466Z,37.80
2022-11-15T12:14:04.980Z,45.35
2022-11-15T12:16:34.260Z,45.70
2022-11-15T12:19:03.240Z,45.78
2022-11-15T12:21:44.760Z,47.33
2022-11-15T12:24:36.814Z,45.33
2022-11-15T12:27:28.135Z,48.90
2022-11-15T12:29:59.795Z,48.40
2022-11-15T12:32:36.932Z,46.83
2022-11-15T12:35:06.999Z,47.05
2022-11-15T12:37:41.522Z,48.30
2022-11-15T12:40:24.235Z,49.75
2022-11-15T12:43:25.327Z,48.30
2022-11-15T12:45:51.947Z,44.92
2022-11-15T12:48:18.436Z,42.63
2022-11-15T12:50:51.448Z,46.30
2022-11-15T12:53:24.322Z,42.38
2022-11-15T12:56:13.989Z,44.55
2022-11-15T12:58:48.176Z,42.50
2022-11-15T13:01:40.896Z,44.85
2022-11-15T13:04:27.900Z,46.85
2022-11-15T13:07:01.386Z,49.75
2022-11-15T13:09:37.329Z,46.78
2022-11-15T13:12:04.809Z,46.95
2022-11-15T13:14:50.123Z,47.03
2022-11-15T13:17:22.733Z,49.08
2022-11-15T13:20:07.689Z,46.63
2022-11-15T13:23:03.248Z,46.60
2022-11-15T13:25:56.816Z,50.17
2022-11-15T13:28:50.476Z,54.10
2022-11-15T13:31:29.204Z,50.80
2022-11-15T13:34:00.755Z,53.13
2022-11-15T13:36:31.561Z,51.42
2022-11-15T13:39:02.142Z,55.65
2022-11-15T13:41:34.519Z,54.55
2022-11-15T13:44:02.962Z,50.05
2022-11-15T13:46:30.943Z,54.47
2022-11-15T13:49:09.582Z,52.67
2022-11-15T13:51:48.134Z,72.38
2022-11-15T13:54:24.646Z,67.80
2022-11-15T13:56:58.288Z,65.68
2022-11-15T13:59:31.561Z,54.13
2022-11-15T14:02:15.786Z,61.30
2022-11-15T14:04:54.332Z,68.18
2022-11-15T14:07:24.976Z,70.60
2022-11-15T14:09:51.883Z,67.30
2022-11-15T14:12:34.885Z,68.28
2022-11-15T14:15:25.640Z,63.90
2022-11-15T14:17:52.251Z,60.22
2022-11-15T14:20:38.977Z,56.38
2022-11-15T14:23:27.216Z,55.60
2022-11-15T14:25:58.602Z,54.88
2022-11-15T14:28:25.129Z,56.47
2022-11-15T14:30:57.569Z,56.15
2022-11-15T14:33:31.658Z,53.42
2022-11-15T14:36:03.539Z,49.60
2022-11-15T14:38:30.857Z,52.40
2022-11-15T14:40:58.093Z,54.75
2022-11-15T14:43:25.084Z,55.00
2022-11-15T14:45:51.605Z,52.95
2022-11-15T14:48:18.512Z,54.88
2022-11-15T14:50:45.170Z,53.58
2022-11-15T14:53:17.262Z,55.92
2022-11-15T14:58:10.929Z,54.15
2022-11-15T15:00:40.175Z,53.15
2022-11-15T15:03:07.351Z,54.55
2022-11-15T15:05:38.297Z,52.13
2022-11-15T15:08:06.520Z,56.50
2022-11-15T15:10:40.586Z,55.47
2022-11-15T15:13:19.043Z,52.70
2022-11-15T15:15:46.025Z,68.82
2022-11-15T15:18:12.613Z,59.17
2022-11-15T15:20:41.472Z,54.83
2022-11-15T15:23:20.431Z,57.83
2022-11-15T15:25:49.833Z,56.08
2022-11-15T15:28:16.810Z,56.35
2022-11-15T15:30:43.480Z,57.70
2022-11-15T15:33:10.076Z,54.30
2022-11-15T15:35:36.748Z,54.75
2022-11-15T15:38:03.549Z,57.45
2022-11-15T15:40:33.483Z,57.17
2022-11-15T15:43:00.661Z,59.63
2022-11-15T15:45:28.595Z,63.00
2022-11-15T15:47:55.312Z,61.05
2022-11-15T15:50:26.351Z,66.07
2022-11-15T15:52:55.320Z,65.43
2022-11-15T15:55:22.270Z,60.90
2022-11-15T15:57:49.391Z,73.85
2022-11-15T16:00:17.211Z,74.20
2022-11-15T16:02:44.508Z,81.15
2022-11-15T16:05:14.055Z,79.93
2022-11-15T16:07:41.503Z,76.80
2022-11-15T16:10:25.955Z,77.22
2022-11-15T16:12:54.069Z,76.70
2022-11-15T16:15:22.862Z,78.70
2022-11-15T16:17:52.791Z,76.40
2022-11-15T16:20:38.102Z,80.72
2022-11-15T16:23:09.609Z,87.20
2022-11-15T16:25:48.683Z,79.28
2022-11-15T16:28:27.196Z,76.75
2022-11-15T16:31:03.182Z,81.43
2022-11-15T16:33:30.154Z,79.90
2022-11-15T16:35:57.009Z,81.13
2022-11-15T16:38:23.802Z,75.85
2022-11-15T16:40:50.339Z,76.30
2022-11-15T16:43:17.153Z,71.53
2022-11-15T16:45:43.934Z,64.57
2022-11-15T16:48:28.423Z,61.33
2022-11-15T16:50:57.350Z,61.63
2022-11-15T16:53:25.113Z,62.25
2022-11-15T16:55:52.135Z,60.75
2022-11-15T16:58:18.830Z,63.45
2022-11-15T17:00:46.214Z,63.92
2022-11-15T17:05:29.752Z,56.28
2022-11-15T17:07:56.502Z,56.78
2022-11-15T17:10:24.762Z,57.67
2022-11-15T17:12:51.811Z,49.90
2022-11-15T17:15:19.244Z,53.50
2022-11-15T17:17:51.926Z,48.13
2022-11-15T17:20:20.049Z,55.25
2022-11-15T17:22:47.344Z,54.00
2022-11-15T17:25:14.717Z,55.30
2022-11-15T17:27:41.330Z,57.40
2022-11-15T17:32:40.339Z,62.95
2022-11-15T17:35:11.978Z,69.07
2022-11-15T17:37:41.938Z,65.15
2022-11-15T17:40:09.137Z,66.07
2022-11-15T17:42:37.084Z,65.28
2022-11-15T17:45:09.320Z,62.67
2022-11-15T17:47:36.423Z,60.70
2022-11-15T17:50:03.285Z,64.30
2022-11-15T17:52:30.111Z,58.08
2022-11-15T17:54:56.648Z,63.33
2022-11-15T17:57:23.179Z,110.80
2022-11-15T17:59:49.784Z,94.47
2022-11-15T18:02:16.903Z,249.30
2022-11-15T18:04:43.562Z,220.25
2022-11-15T18:07:11.832Z,220.30
2022-11-15T18:09:42.171Z,177.82
2022-11-15T18:12:09.498Z,133.70
2022-11-15T18:14:36.103Z,132.57
2022-11-15T18:17:02.753Z,182.90
2022-11-15T18:19:29.327Z,125.10
2022-11-15T18:21:56.644Z,148.57
2022-11-15T18:24:34.774Z,121.72
2022-11-15T18:27:03.984Z,108.68
2022-11-15T18:29:30.676Z,99.93
2022-11-15T18:31:57.601Z,101.72
2022-11-15T18:34:26.993Z,100.93
2022-11-15T18:36:53.811Z,112.63
2022-11-15T18:39:20.847Z,72.47
2022-11-15T18:41:48.066Z,81.70
2022-11-15T18:44:15.528Z,315.08
2022-11-15T18:46:44.109Z,218.68
2022-11-15T18:49:13.131Z,275.88
2022-11-15T18:51:42.989Z,194.35
2022-11-15T18:56:26.932Z,154.77
2022-11-15T18:58:55.445Z,109.22
2022-11-15T19:01:27.474Z,83.93
2022-11-15T19:06:29.349Z,59.70
2022-11-15T19:08:58.511Z,87.20
2022-11-15T19:11:28.888Z,71.63
2022-11-15T19:13:57.955Z,86.68
2022-11-15T19:16:24.591Z,84.88
2022-11-15T19:19:03.199Z,82.47
2022-11-15T19:21:31.233Z,84.45
2022-11-15T19:23:58.985Z,68.50
2022-11-15T19:26:27.142Z,54.75
2022-11-15T19:28:57.243Z,45.08
2022-11-15T19:31:25.555Z,47.83
2022-11-15T19:33:53.043Z,46.92
2022-11-15T19:36:27.842Z,62.15
2022-11-15T19:38:57.471Z,79.40
2022-11-15T19:41:25.099Z,94.63
2022-11-15T19:43:52.902Z,84.75
2022-11-15T19:46:21.905Z,103.63
2022-11-15T19:48:48.583Z,102.82
2022-11-15T19:51:21.622Z,107.25
2022-11-15T19:53:49.589Z,127.15
2022-11-15T19:56:18.207Z,129.20
2022-11-15T19:58:45.885Z,143.43
2022-11-15T20:01:26.747Z,136.80
2022-11-15T20:03:55.667Z,126.47
2022-11-15T20:06:24.776Z,134.27
2022-11-15T20:08:51.949Z,137.63
2022-11-15T20:11:20.187Z,139.00
2022-11-15T20:13:47.041Z,135.05
2022-11-15T20:16:22.246Z,128.38
2022-11-15T20:18:50.189Z,137.55
2022-11-15T20:21:18.001Z,136.50
2022-11-15T20:23:44.933Z,138.77
2022-11-15T20:26:12.092Z,145.40
2022-11-15T20:28:39.821Z,135.10
2022-11-15T20:31:07.911Z,138.48
2022-11-15T20:33:35.079Z,134.65
2022-11-15T20:38:24.803Z,135.63
2022-11-15T20:40:56.061Z,131.40
2022-11-15T20:43:25.736Z,129.65
2022-11-15T20:45:52.300Z,126.50
2022-11-15T20:48:18.931Z,125.95
2022-11-15T20:50:47.159Z,120.72
2022-11-15T20:53:17.679Z,118.82
2022-11-15T20:55:48.008Z,117.72
2022-11-15T20:58:16.516Z,108.57
2022-11-15T21:00:44.781Z,112.50
2022-11-15T21:03:12.339Z,108.07
2022-11-15T21:05:41.229Z,100.80
2022-11-15T21:08:08.615Z,106.85
2022-11-15T21:10:53.865Z,106.35
2022-11-15T21:13:20.770Z,108.75
2022-11-15T21:15:47.433Z,106.60
2022-11-15T21:18:14.781Z,110.68
2022-11-15T21:20:41.619Z,105.88
2022-11-15T21:23:08.580Z,99.85
2022-11-15T21:25:37.879Z,107.47
2022-11-15T21:28:04.479Z,100.78
2022-11-15T21:30:31.235Z,99.22
2022-11-15T21:32:57.981Z,96.40
2022-11-15T21:35:24.512Z,100.15
2022-11-15T21:37:56.522Z,95.50
2022-11-15T21:40:24.690Z,120.25
2022-11-15T21:42:51.182Z,135.43
2022-11-15T21:45:17.765Z,129.48
2022-11-15T21:47:46.345Z,120.43
2022-11-15T21:50:14.487Z,123.32
2022-11-15T21:52:41.431Z,133.23
2022-11-15T21:55:09.026Z,129.77
2022-11-15T22:00:19.459Z,127.70
2022-11-15T22:02:46.130Z,129.52
2022-11-15T22:05:12.714Z,129.45
2022-11-15T22:07:39.470Z,133.80
2022-11-15T22:10:06.589Z,152.63
2022-11-15T22:12:33.607Z,145.68
2022-11-15T22:15:00.191Z,141.93
2022-11-15T22:17:46.767Z,131.73
2022-11-15T22:20:37.596Z,116.55
2022-11-15T22:23:00.370Z,118.88
2022-11-15T22:25:26.949Z,127.38
2022-11-15T22:27:54.076Z,127.47
2022-11-15T22:30:21.283Z,125.05
2022-11-15T22:32:48.347Z,123.55
2022-11-15T22:35:14.924Z,125.65
2022-11-15T22:37:42.406Z,123.38
2022-11-15T22:40:09.744Z,122.70
2022-11-15T22:42:36.415Z,116.38
2022-11-15T22:45:03.139Z,116.18
2022-11-15T22:47:29.747Z,110.25
2022-11-15T22:49:56.319Z,108.43
2022-11-15T22:52:22.860Z,120.72
2022-11-15T22:54:49.447Z,108.80
2022-11-15T22:57:16.242Z,102.15
2022-11-15T22:59:42.858Z,96.32
2022-11-15T23:02:09.520Z,93.97
2022-11-15T23:04:36.065Z,100.30
2022-11-15T23:07:02.801Z,97.65
2022-11-15T23:09:29.882Z,96.70
2022-11-15T23:12:14.812Z,120.10
2022-11-15T23:14:41.492Z,161.68
2022-11-15T23:17:08.043Z,160.00
2022-11-15T23:19:34.762Z,125.03
2022-11-15T23:22:19.715Z,94.40
2022-11-15T23:24:46.564Z,79.75
2022-11-15T23:27:15.530Z,69.05
2022-11-15T23:30:00.427Z,46.38
2022-11-15T23:32:45.686Z,66.68
2022-11-15T23:35:12.529Z,66.50
2022-11-15T23:37:39.072Z,72.18
2022-11-15T23:40:06.781Z,69.55
2022-11-15T23:42:33.460Z,80.10
2022-11-15T23:45:00.090Z,72.13
2022-11-15T23:47:26.679Z,70.28
2022-11-15T23:49:53.291Z,77.68
2022-11-15T23:52:20.256Z,119.43
2022-11-15T23:54:46.911Z,139.45
2022-11-15T23:57:13.518Z,139.85
2022-11-15T23:59:45.919Z,143.30
